Time;durP1;ratioP1;P1;durP2;ratioP2;P2;SDS_P1;SDS_P2;PMS_P1;PMS_P2;Temp;Humidity;BMP_temperature;BMP_pressure;BME280_temperature;BME280_humidity;BME280_pressure;Samples;Min_cycle;Max_cycle;Signal;HPM_P1;HPM_P2
2022/05/07 00:00:22;;;;;;;36.97;30.73;;;;;;;;;;5023850;28;20822;-85
2022/05/07 00:02:48;;;;;;;37.17;31.37;;;;;;;;;;5023771;28;20718;-85
2022/05/07 00:05:15;;;;;;;38.87;31.17;;;;;;;;;;5023524;28;20407;-85
2022/05/07 00:07:41;;;;;;;42.30;31.70;;;;;;;;;;5024077;28;20411;-85
2022/05/07 00:10:07;;;;;;;42.17;33.80;;;;;;;;;;5024192;28;20766;-85
2022/05/07 00:12:33;;;;;;;41.37;33.70;;;;;;;;;;5024341;28;20510;-85
2022/05/07 00:14:59;;;;;;;40.07;32.43;;;;;;;;;;5024678;28;20871;-82
2022/05/07 00:20:10;;;;;;;44.67;33.20;;;;;;;;;;5032544;28;20502;-85
2022/05/07 00:22:36;;;;;;;47.57;37.00;;;;;;;;;;5024092;28;20455;-84
2022/05/07 00:25:03;;;;;;;48.60;38.30;;;;;;;;;;5024656;28;20466;-84
2022/05/07 00:27:29;;;;;;;44.17;34.67;;;;;;;;;;5039554;28;20411;-85
2022/05/07 00:29:55;;;;;;;45.03;35.17;;;;;;;;;;5023335;28;20469;-85
2022/05/07 00:32:21;;;;;;;43.63;37.07;;;;;;;;;;5023566;28;20978;-85
2022/05/07 00:34:47;;;;;;;42.33;34.47;;;;;;;;;;5038149;28;20407;-85
2022/05/07 00:37:13;;;;;;;44.73;35.03;;;;;;;;;;5023082;28;20482;-85
2022/05/07 00:39:39;;;;;;;45.47;36.23;;;;;;;;;;5023158;28;20416;-85
2022/05/07 00:42:06;;;;;;;43.47;34.33;;;;;;;;;;5023683;28;20451;-85
2022/05/07 00:44:32;;;;;;;39.90;34.67;;;;;;;;;;5038453;28;20412;-85
2022/05/07 00:47:17;;;;;;;43.97;35.00;;;;;;;;;;5023505;28;20855;-85
2022/05/07 00:49:47;;;;;;;42.87;34.93;;;;;;;;;;5023295;28;20422;-85
2022/05/07 00:52:14;;;;;;;44.80;34.80;;;;;;;;;;5023519;28;20427;-85
2022/05/07 00:54:44;;;;;;;45.10;35.60;;;;;;;;;;5023383;28;20914;-85
2022/05/07 00:57:10;;;;;;;47.33;36.70;;;;;;;;;;5023093;28;20399;-85
2022/05/07 00:59:36;;;;;;;44.87;34.30;;;;;;;;;;5023059;28;20462;-86
2022/05/07 01:02:02;;;;;;;46.77;35.00;;;;;;;;;;5023566;28;20565;-85
2022/05/07 01:04:28;;;;;;;45.27;35.00;;;;;;;;;;5025950;28;20826;-84
2022/05/07 01:06:54;;;;;;;49.73;37.80;;;;;;;;;;5032910;28;20404;-84
2022/05/07 01:09:21;;;;;;;47.30;36.73;;;;;;;;;;5042871;28;20944;-86
2022/05/07 01:11:47;;;;;;;44.50;36.10;;;;;;;;;;5022947;28;20466;-86
2022/05/07 01:14:13;;;;;;;42.23;34.83;;;;;;;;;;5035190;28;20454;-84
2022/05/07 01:16:39;;;;;;;40.43;34.57;;;;;;;;;;5028528;28;20446;-86
2022/05/07 01:19:05;;;;;;;43.40;33.10;;;;;;;;;;5023826;28;20494;-86
2022/05/07 01:21:31;;;;;;;45.43;35.60;;;;;;;;;;5023720;28;20463;-86
2022/05/07 01:23:59;;;;;;;39.87;33.50;;;;;;;;;;5023067;28;20533;-86
2022/05/07 01:26:25;;;;;;;41.67;34.70;;;;;;;;;;5022243;28;20418;-86
2022/05/07 01:28:52;;;;;;;45.27;35.90;;;;;;;;;;5022182;28;20450;-86
2022/05/07 01:31:18;;;;;;;42.67;34.67;;;;;;;;;;5037681;28;20435;-86
2022/05/07 01:33:44;;;;;;;38.10;32.37;;;;;;;;;;5022080;28;20891;-86
2022/05/07 01:36:13;;;;;;;36.00;31.40;;;;;;;;;;5037377;28;20915;-86
2022/05/07 01:38:39;;;;;;;39.33;32.30;;;;;;;;;;5022619;28;20498;-86
2022/05/07 01:41:06;;;;;;;43.63;34.23;;;;;;;;;;5035991;28;20451;-83
2022/05/07 01:43:32;;;;;;;41.73;33.50;;;;;;;;;;5034373;28;20408;-85
2022/05/07 01:46:01;;;;;;;38.00;32.20;;;;;;;;;;5023295;28;20457;-85
2022/05/07 01:48:28;;;;;;;39.80;32.50;;;;;;;;;;5022897;28;20498;-85
2022/05/07 01:50:54;;;;;;;40.03;34.20;;;;;;;;;;5022473;28;20424;-85
2022/05/07 01:53:22;;;;;;;40.63;34.63;;;;;;;;;;5020764;28;20438;-86
2022/05/07 01:55:48;;;;;;;40.57;32.67;;;;;;;;;;5022018;28;20415;-86
2022/05/07 01:58:14;;;;;;;41.23;33.70;;;;;;;;;;5022031;28;20411;-86
2022/05/07 02:00:40;;;;;;;43.10;34.30;;;;;;;;;;5021778;28;20832;-86
2022/05/07 02:03:07;;;;;;;42.33;35.50;;;;;;;;;;5021561;28;21002;-86
2022/05/07 02:05:33;;;;;;;40.20;32.70;;;;;;;;;;5022501;28;20919;-86
2022/05/07 02:07:59;;;;;;;45.20;36.37;;;;;;;;;;5021659;28;20414;-86
2022/05/07 02:10:25;;;;;;;43.83;34.30;;;;;;;;;;5022038;28;20485;-86
2022/05/07 02:12:52;;;;;;;43.57;35.93;;;;;;;;;;5037121;28;20418;-86
2022/05/07 02:15:18;;;;;;;43.63;36.27;;;;;;;;;;5022027;28;20439;-86
2022/05/07 02:17:44;;;;;;;41.30;33.47;;;;;;;;;;5022182;28;20407;-86
2022/05/07 02:20:10;;;;;;;43.87;35.77;;;;;;;;;;5021666;28;20423;-86
2022/05/07 02:22:37;;;;;;;44.70;36.03;;;;;;;;;;5022367;28;20454;-86
2022/05/07 02:25:03;;;;;;;44.90;34.60;;;;;;;;;;5021663;28;20502;-86
2022/05/07 02:27:30;;;;;;;43.50;35.77;;;;;;;;;;5021292;28;20419;-86
2022/05/07 02:29:56;;;;;;;43.33;36.43;;;;;;;;;;5021744;28;20426;-86
2022/05/07 02:32:22;;;;;;;41.73;35.07;;;;;;;;;;5022233;28;20411;-86
2022/05/07 02:34:48;;;;;;;47.30;37.63;;;;;;;;;;5027788;28;20483;-84
2022/05/07 02:37:14;;;;;;;46.30;36.93;;;;;;;;;;5033424;28;20407;-84
2022/05/07 02:39:40;;;;;;;45.37;34.80;;;;;;;;;;5033738;28;20483;-84
2022/05/07 02:44:51;;;;;;;45.90;36.90;;;;;;;;;;5030800;28;20384;-85
2022/05/07 02:47:17;;;;;;;45.40;37.67;;;;;;;;;;5021648;28;20395;-86
2022/05/07 02:49:43;;;;;;;50.63;40.00;;;;;;;;;;5020989;28;20431;-86
2022/05/07 02:52:09;;;;;;;49.03;37.77;;;;;;;;;;5019715;28;20414;-84
2022/05/07 02:54:35;;;;;;;46.47;37.30;;;;;;;;;;5020309;28;20403;-85
2022/05/07 02:57:01;;;;;;;49.40;38.77;;;;;;;;;;5035390;28;20481;-84
2022/05/07 02:59:28;;;;;;;48.60;39.40;;;;;;;;;;5020258;28;20427;-84
2022/05/07 03:01:54;;;;;;;48.07;38.17;;;;;;;;;;5021331;28;20868;-84
2022/05/07 03:04:20;;;;;;;48.03;38.90;;;;;;;;;;5021677;28;20396;-84
2022/05/07 03:06:46;;;;;;;54.07;40.60;;;;;;;;;;5023519;28;20953;-87
2022/05/07 03:09:12;;;;;;;52.67;39.60;;;;;;;;;;5039600;28;20431;-85
2022/05/07 03:11:38;;;;;;;51.63;40.57;;;;;;;;;;5024728;28;20494;-85
2022/05/07 03:14:06;;;;;;;48.93;37.70;;;;;;;;;;5025378;28;20415;-85
2022/05/07 03:16:35;;;;;;;51.30;39.93;;;;;;;;;;5040579;28;20415;-84
2022/05/07 03:19:02;;;;;;;50.27;39.63;;;;;;;;;;5024759;28;20431;-86
2022/05/07 03:21:28;;;;;;;52.80;39.97;;;;;;;;;;5024674;28;20447;-85
2022/05/07 03:23:54;;;;;;;46.27;37.00;;;;;;;;;;5029835;28;20768;-84
2022/05/07 03:26:22;;;;;;;47.80;36.40;;;;;;;;;;5034126;28;20839;-84
2022/05/07 03:28:48;;;;;;;45.90;35.50;;;;;;;;;;5029166;28;20423;-85
2022/05/07 03:31:14;;;;;;;51.10;38.30;;;;;;;;;;5023254;28;20509;-85
2022/05/07 03:33:40;;;;;;;49.60;38.33;;;;;;;;;;5024945;28;20423;-86
2022/05/07 03:36:06;;;;;;;53.40;37.40;;;;;;;;;;5023881;28;20943;-86
2022/05/07 03:38:32;;;;;;;49.77;38.00;;;;;;;;;;5024215;28;20490;-86
2022/05/07 03:40:59;;;;;;;47.73;36.60;;;;;;;;;;5038785;28;20438;-86
2022/05/07 03:43:25;;;;;;;49.17;37.80;;;;;;;;;;5024860;28;20415;-86
2022/05/07 03:45:51;;;;;;;52.40;38.73;;;;;;;;;;5043950;28;20411;-84
2022/05/07 03:48:17;;;;;;;47.30;38.20;;;;;;;;;;5037277;28;20433;-85
2022/05/07 03:50:43;;;;;;;48.30;37.67;;;;;;;;;;5023976;28;20446;-86
2022/05/07 03:55:54;;;;;;;58.77;40.80;;;;;;;;;;5023486;28;20470;-86
2022/05/07 03:58:20;;;;;;;51.70;39.67;;;;;;;;;;5024330;28;20414;-86
2022/05/07 04:00:47;;;;;;;50.90;37.73;;;;;;;;;;5024750;28;20449;-86
2022/05/07 04:03:13;;;;;;;52.00;38.13;;;;;;;;;;5024784;28;20451;-86
2022/05/07 04:05:39;;;;;;;53.80;39.47;;;;;;;;;;5040571;28;20931;-86
2022/05/07 04:08:06;;;;;;;48.53;37.13;;;;;;;;;;5043600;28;20423;-85
2022/05/07 04:10:32;;;;;;;48.93;36.90;;;;;;;;;;5025759;28;20419;-86
2022/05/07 04:12:58;;;;;;;48.60;36.70;;;;;;;;;;5026783;28;20820;-85
2022/05/07 04:15:24;;;;;;;52.57;39.67;;;;;;;;;;5024491;28;20418;-86
2022/05/07 04:17:50;;;;;;;52.03;36.77;;;;;;;;;;5020933;28;20412;-84
2022/05/07 04:20:18;;;;;;;47.27;36.83;;;;;;;;;;5010980;28;20439;-86
2022/05/07 04:22:44;;;;;;;54.60;39.27;;;;;;;;;;5002604;28;20460;-85
2022/05/07 04:25:12;;;;;;;57.57;41.63;;;;;;;;;;5001897;28;20772;-85
2022/05/07 04:27:38;;;;;;;51.83;39.67;;;;;;;;;;5016971;28;20499;-86
2022/05/07 04:30:05;;;;;;;51.43;40.13;;;;;;;;;;5004201;28;20443;-86
2022/05/07 04:32:31;;;;;;;47.43;37.40;;;;;;;;;;5004421;28;20443;-86
2022/05/07 04:34:57;;;;;;;45.60;36.43;;;;;;;;;;5005617;28;20409;-86
2022/05/07 04:37:23;;;;;;;46.77;34.67;;;;;;;;;;5005686;28;20455;-86
2022/05/07 04:39:49;;;;;;;43.20;34.70;;;;;;;;;;5005255;28;20432;-86
2022/05/07 04:42:16;;;;;;;44.00;36.17;;;;;;;;;;5005921;28;20448;-86
2022/05/07 04:44:42;;;;;;;44.63;35.30;;;;;;;;;;5019666;28;20423;-82
2022/05/07 04:47:08;;;;;;;44.57;34.50;;;;;;;;;;5015041;28;20451;-86
2022/05/07 04:49:35;;;;;;;48.00;34.33;;;;;;;;;;5005443;28;20424;-86
2022/05/07 04:52:01;;;;;;;47.03;36.87;;;;;;;;;;5005940;28;20417;-86
2022/05/07 04:54:27;;;;;;;49.50;38.07;;;;;;;;;;5005619;28;20408;-86
2022/05/07 04:56:54;;;;;;;37.83;29.90;;;;;;;;;;5005305;28;20417;-86
2022/05/07 04:59:20;;;;;;;40.27;30.90;;;;;;;;;;5004923;28;20539;-86
2022/05/07 05:01:47;;;;;;;34.50;28.40;;;;;;;;;;5062908;23;20491;-83
2022/05/07 05:04:13;;;;;;;35.20;30.10;;;;;;;;;;5049733;28;20409;-83
2022/05/07 05:06:40;;;;;;;36.77;28.37;;;;;;;;;;5050574;28;20391;-82
2022/05/07 05:09:06;;;;;;;37.83;29.17;;;;;;;;;;5049331;28;20402;-83
2022/05/07 05:11:33;;;;;;;38.10;30.80;;;;;;;;;;5048202;28;20502;-81
2022/05/07 05:13:59;;;;;;;39.57;30.67;;;;;;;;;;5050993;28;20406;-82
2022/05/07 05:16:25;;;;;;;36.97;31.43;;;;;;;;;;5046839;28;20425;-83
2022/05/07 05:18:51;;;;;;;35.27;28.67;;;;;;;;;;5049128;28;20485;-83
2022/05/07 05:21:18;;;;;;;33.40;27.43;;;;;;;;;;5048824;28;20473;-83
2022/05/07 05:23:46;;;;;;;34.43;28.83;;;;;;;;;;5048647;28;20443;-83
2022/05/07 05:26:15;;;;;;;31.40;27.90;;;;;;;;;;5049255;28;20769;-83
2022/05/07 05:28:43;;;;;;;41.80;31.77;;;;;;;;;;5047999;28;20399;-83
2022/05/07 05:31:09;;;;;;;33.03;28.57;;;;;;;;;;5048238;28;20426;-82
2022/05/07 05:33:35;;;;;;;30.43;26.50;;;;;;;;;;5047949;28;20914;-83
2022/05/07 05:36:02;;;;;;;29.13;25.00;;;;;;;;;;5048657;28;20464;-83
2022/05/07 05:38:28;;;;;;;27.23;24.10;;;;;;;;;;5050381;28;20418;-82
2022/05/07 05:40:54;;;;;;;30.47;25.00;;;;;;;;;;5043699;28;20560;-82
2022/05/07 05:43:20;;;;;;;30.67;23.20;;;;;;;;;;5036301;28;20469;-82
2022/05/07 05:45:46;;;;;;;31.17;25.63;;;;;;;;;;5039204;28;20406;-82
2022/05/07 05:48:13;;;;;;;32.53;25.40;;;;;;;;;;5041598;28;20402;-82
2022/05/07 05:50:39;;;;;;;26.10;23.30;;;;;;;;;;5042046;28;20488;-82
2022/05/07 05:53:06;;;;;;;27.80;24.63;;;;;;;;;;5039678;28;20407;-83
2022/05/07 05:55:33;;;;;;;25.40;22.20;;;;;;;;;;5042604;28;20407;-83
2022/05/07 05:57:59;;;;;;;24.90;22.13;;;;;;;;;;5041178;28;20418;-82
2022/05/07 06:00:25;;;;;;;25.00;22.30;;;;;;;;;;5042880;28;20450;-83
2022/05/07 06:02:52;;;;;;;27.00;22.47;;;;;;;;;;5044588;28;20454;-82
2022/05/07 06:05:19;;;;;;;20.67;18.00;;;;;;;;;;5044365;28;20441;-82
2022/05/07 06:07:45;;;;;;;19.37;17.37;;;;;;;;;;5045164;28;20946;-83
2022/05/07 06:10:11;;;;;;;20.67;18.03;;;;;;;;;;5045032;28;20425;-83
2022/05/07 06:12:37;;;;;;;22.10;19.10;;;;;;;;;;5044067;28;20402;-83
2022/05/07 06:15:05;;;;;;;21.10;18.97;;;;;;;;;;5043287;28;20441;-82
2022/05/07 06:17:31;;;;;;;21.83;19.53;;;;;;;;;;5043491;28;20902;-82
2022/05/07 06:19:57;;;;;;;20.90;18.70;;;;;;;;;;5043854;28;20407;-83
2022/05/07 06:22:23;;;;;;;22.47;20.00;;;;;;;;;;5045201;28;20450;-82
2022/05/07 06:27:34;;;;;;;21.40;17.90;;;;;;;;;;5044694;28;20457;-83
2022/05/07 06:30:04;;;;;;;20.77;17.93;;;;;;;;;;5044195;28;20413;-83
2022/05/07 06:32:34;;;;;;;21.70;19.50;;;;;;;;;;5044140;28;20403;-81
2022/05/07 06:35:03;;;;;;;20.87;18.77;;;;;;;;;;5043405;28;20776;-83
2022/05/07 06:37:29;;;;;;;21.73;19.40;;;;;;;;;;5044937;28;20952;-83
2022/05/07 06:39:55;;;;;;;21.30;19.23;;;;;;;;;;5043642;28;20402;-83
2022/05/07 06:42:21;;;;;;;20.47;18.27;;;;;;;;;;5046630;28;20454;-83
2022/05/07 06:44:47;;;;;;;21.27;18.50;;;;;;;;;;5046854;28;20403;-83
2022/05/07 06:47:14;;;;;;;19.20;17.10;;;;;;;;;;5047011;28;20425;-83
2022/05/07 06:49:42;;;;;;;20.00;18.00;;;;;;;;;;5046813;28;20456;-82
2022/05/07 06:52:09;;;;;;;18.57;16.23;;;;;;;;;;5047596;28;20806;-83
2022/05/07 06:54:35;;;;;;;20.40;17.47;;;;;;;;;;5047425;28;20406;-83
2022/05/07 06:57:02;;;;;;;19.53;17.60;;;;;;;;;;5047429;28;20414;-83
2022/05/07 06:59:29;;;;;;;19.10;17.10;;;;;;;;;;5047935;28;20437;-83
2022/05/07 07:01:55;;;;;;;20.33;18.23;;;;;;;;;;5046798;28;20978;-83
2022/05/07 07:04:21;;;;;;;20.30;17.13;;;;;;;;;;5047456;28;20413;-82
2022/05/07 07:06:49;;;;;;;21.80;17.80;;;;;;;;;;5048036;28;20414;-82
2022/05/07 07:09:15;;;;;;;21.10;17.80;;;;;;;;;;5047635;28;20497;-83
2022/05/07 07:11:42;;;;;;;18.87;16.97;;;;;;;;;;5047345;28;20432;-83
2022/05/07 07:14:08;;;;;;;24.90;17.70;;;;;;;;;;5047638;28;20913;-81
2022/05/07 07:16:34;;;;;;;19.73;17.63;;;;;;;;;;5049755;28;20456;-82
2022/05/07 07:19:00;;;;;;;18.30;16.33;;;;;;;;;;5048443;28;20410;-83
2022/05/07 07:21:26;;;;;;;22.00;19.60;;;;;;;;;;5047509;28;20481;-83
2022/05/07 07:23:52;;;;;;;22.47;20.03;;;;;;;;;;5047935;28;20417;-83
2022/05/07 07:26:18;;;;;;;21.53;19.40;;;;;;;;;;5048665;28;20470;-83
2022/05/07 07:28:45;;;;;;;21.33;19.03;;;;;;;;;;5047078;28;20406;-83
2022/05/07 07:31:11;;;;;;;23.37;20.87;;;;;;;;;;5046677;28;20498;-83
2022/05/07 07:33:38;;;;;;;21.83;19.37;;;;;;;;;;5046591;28;20411;-83
2022/05/07 07:36:05;;;;;;;23.57;21.13;;;;;;;;;;5032413;28;20451;-83
2022/05/07 07:38:31;;;;;;;23.70;21.20;;;;;;;;;;5020576;28;20430;-83
2022/05/07 07:40:57;;;;;;;23.97;21.47;;;;;;;;;;5012940;28;20443;-84
2022/05/07 07:43:23;;;;;;;25.00;22.40;;;;;;;;;;5013102;28;20451;-84
2022/05/07 07:48:34;;;;;;;25.03;22.20;;;;;;;;;;5013667;28;20411;-84
2022/05/07 07:51:01;;;;;;;27.37;23.17;;;;;;;;;;5013396;28;20416;-83
2022/05/07 07:53:27;;;;;;;25.97;23.20;;;;;;;;;;5013130;28;20434;-83
2022/05/07 07:55:53;;;;;;;26.90;23.37;;;;;;;;;;5013499;28;20412;-83
2022/05/07 07:58:19;;;;;;;22.50;19.43;;;;;;;;;;5013195;28;20475;-83
2022/05/07 08:00:45;;;;;;;23.30;18.50;;;;;;;;;;5013103;28;20478;-83
2022/05/07 08:03:15;;;;;;;23.03;20.57;;;;;;;;;;5012778;28;20523;-83
2022/05/07 08:05:42;;;;;;;22.53;20.10;;;;;;;;;;5013370;28;20559;-83
2022/05/07 08:13:40;;;;;;;24.47;21.87;;;;;;;;;;5012665;28;20400;-83
2022/05/07 08:16:09;;;;;;;27.60;24.63;;;;;;;;;;5013458;28;20416;-83
2022/05/07 08:18:35;;;;;;;27.23;24.27;;;;;;;;;;5011841;28;20416;-83
2022/05/07 08:21:02;;;;;;;26.10;22.63;;;;;;;;;;5013014;28;20424;-84
2022/05/07 08:23:28;;;;;;;28.63;24.77;;;;;;;;;;5012009;28;20760;-83
2022/05/07 08:25:55;;;;;;;24.73;22.00;;;;;;;;;;5016334;28;20416;-83
2022/05/07 08:28:24;;;;;;;30.20;25.67;;;;;;;;;;5016347;28;20415;-83
2022/05/07 08:30:50;;;;;;;25.50;22.80;;;;;;;;;;5016447;28;20454;-83
2022/05/07 08:33:19;;;;;;;23.97;21.40;;;;;;;;;;5016524;28;20473;-83
2022/05/07 08:35:45;;;;;;;23.37;21.07;;;;;;;;;;5016353;28;20975;-83
2022/05/07 08:38:11;;;;;;;26.80;23.03;;;;;;;;;;5015772;28;20424;-83
2022/05/07 08:40:40;;;;;;;26.83;24.03;;;;;;;;;;5013751;28;20434;-82
2022/05/07 08:43:06;;;;;;;25.57;22.80;;;;;;;;;;5012541;28;20910;-83
2022/05/07 08:45:32;;;;;;;22.17;19.97;;;;;;;;;;5012890;28;20416;-83
2022/05/07 08:48:00;;;;;;;22.80;18.87;;;;;;;;;;5012362;28;20405;-83
2022/05/07 08:50:28;;;;;;;20.53;18.43;;;;;;;;;;5011282;28;20476;-83
2022/05/07 08:52:55;;;;;;;22.60;20.30;;;;;;;;;;5011438;28;20412;-83
2022/05/07 08:55:21;;;;;;;23.60;19.93;;;;;;;;;;5012424;28;20472;-84
2022/05/07 08:57:48;;;;;;;23.30;20.80;;;;;;;;;;5012279;28;20494;-83
2022/05/07 09:00:15;;;;;;;22.17;19.77;;;;;;;;;;5012634;28;20448;-83
2022/05/07 09:02:47;;;;;;;26.20;22.87;;;;;;;;;;5009947;28;20857;-83
2022/05/07 09:05:14;;;;;;;23.17;20.37;;;;;;;;;;5008756;28;20404;-83
2022/05/07 09:07:51;;;;;;;25.07;20.90;;;;;;;;;;4999652;28;20418;-82
2022/05/07 09:10:17;;;;;;;23.37;20.87;;;;;;;;;;5000488;28;20439;-83
2022/05/07 09:12:43;;;;;;;20.83;18.73;;;;;;;;;;5007438;28;20428;-83
2022/05/07 09:15:10;;;;;;;19.40;17.40;;;;;;;;;;5010358;28;20475;-83
2022/05/07 09:17:37;;;;;;;20.27;18.07;;;;;;;;;;5010665;28;20432;-83
2022/05/07 09:20:13;;;;;;;22.50;19.77;;;;;;;;;;5020723;28;20419;-82
2022/05/07 09:22:55;;;;;;;19.13;17.20;;;;;;;;;;5015026;28;20456;-81
2022/05/07 09:25:27;;;;;;;18.50;16.70;;;;;;;;;;5023701;28;20462;-84
2022/05/07 09:27:56;;;;;;;17.77;15.87;;;;;;;;;;5023998;28;20412;-81
2022/05/07 09:30:24;;;;;;;18.53;16.40;;;;;;;;;;5033466;28;20466;-83
2022/05/07 09:32:51;;;;;;;16.03;14.43;;;;;;;;;;5020499;28;20484;-82
2022/05/07 09:38:03;;;;;;;13.53;12.23;;;;;;;;;;5031691;28;20755;-83
2022/05/07 09:40:30;;;;;;;15.87;14.30;;;;;;;;;;5032610;28;20427;-83
2022/05/07 09:42:59;;;;;;;15.13;13.50;;;;;;;;;;5017397;28;20483;-83
2022/05/07 09:45:26;;;;;;;14.97;13.37;;;;;;;;;;5012107;28;20427;-83
2022/05/07 09:47:53;;;;;;;14.77;13.17;;;;;;;;;;5012237;28;20435;-83
2022/05/07 09:50:20;;;;;;;14.37;12.97;;;;;;;;;;5012220;28;20447;-81
2022/05/07 09:58:20;;;;;;;14.63;13.03;;;;;;;;;;5015839;28;20438;-83
2022/05/07 10:00:49;;;;;;;15.00;13.47;;;;;;;;;;5011985;28;20451;-83
2022/05/07 10:03:23;;;;;;;15.13;11.50;;;;;;;;;;5017902;28;20463;-84
2022/05/07 10:06:07;;;;;;;12.87;11.57;;;;;;;;;;5031098;28;20388;-83
2022/05/07 10:08:40;;;;;;;14.07;12.20;;;;;;;;;;5017904;28;20424;-83
2022/05/07 10:11:06;;;;;;;14.20;12.80;;;;;;;;;;5009813;28;20437;-83
2022/05/07 10:13:33;;;;;;;17.87;14.30;;;;;;;;;;5020007;28;20407;-83
2022/05/07 10:16:03;;;;;;;18.80;16.70;;;;;;;;;;5013963;28;20413;-83
2022/05/07 10:18:41;;;;;;;18.50;16.23;;;;;;;;;;5009849;28;20420;-82
2022/05/07 10:21:14;;;;;;;18.50;16.60;;;;;;;;;;5020055;28;20435;-83
2022/05/07 10:23:50;;;;;;;19.23;16.70;;;;;;;;;;5022742;28;20434;-83
2022/05/07 10:26:16;;;;;;;19.00;16.43;;;;;;;;;;5031048;28;20423;-83
2022/05/07 10:28:44;;;;;;;18.83;16.83;;;;;;;;;;5017723;28;20412;-82
2022/05/07 10:31:16;;;;;;;18.87;15.80;;;;;;;;;;5010740;28;20424;-82
2022/05/07 10:33:42;;;;;;;16.97;15.27;;;;;;;;;;5022691;28;20426;-83
2022/05/07 10:36:09;;;;;;;18.93;17.00;;;;;;;;;;5029220;28;20407;-83
2022/05/07 10:38:37;;;;;;;18.47;15.90;;;;;;;;;;5030663;28;20411;-83
2022/05/07 10:41:04;;;;;;;16.90;15.27;;;;;;;;;;5018911;28;20447;-83
2022/05/07 10:43:40;;;;;;;15.77;14.27;;;;;;;;;;5026033;28;20459;-83
2022/05/07 10:46:11;;;;;;;16.13;14.43;;;;;;;;;;5029131;28;20438;-83
2022/05/07 10:48:50;;;;;;;14.63;13.13;;;;;;;;;;5030872;28;20516;-83
2022/05/07 10:51:50;;;;;;;15.60;14.10;;;;;;;;;;5020573;28;20443;-83
2022/05/07 10:54:21;;;;;;;15.90;14.30;;;;;;;;;;5008618;28;20440;-83
2022/05/07 10:56:54;;;;;;;14.80;13.30;;;;;;;;;;5010845;28;20476;-83
2022/05/07 10:59:21;;;;;;;14.87;13.47;;;;;;;;;;5011310;28;20431;-83
2022/05/07 11:01:48;;;;;;;13.93;12.53;;;;;;;;;;5066637;23;20483;-86
2022/05/07 11:04:18;;;;;;;15.90;14.30;;;;;;;;;;5034128;28;20407;-87
2022/05/07 11:06:53;;;;;;;16.30;14.70;;;;;;;;;;5037938;28;20406;-86
2022/05/07 11:09:27;;;;;;;15.30;13.80;;;;;;;;;;5038234;28;20406;-87
2022/05/07 11:11:54;;;;;;;16.33;14.43;;;;;;;;;;5025892;28;20545;-86
2022/05/07 11:14:32;;;;;;;14.70;13.30;;;;;;;;;;5037877;28;20961;-87
2022/05/07 11:16:58;;;;;;;16.13;14.53;;;;;;;;;;5041660;28;20406;-87
2022/05/07 11:19:26;;;;;;;13.83;12.47;;;;;;;;;;5041972;28;20411;-86
2022/05/07 11:21:52;;;;;;;14.83;13.33;;;;;;;;;;5043391;28;20469;-86
2022/05/07 11:24:22;;;;;;;14.83;13.43;;;;;;;;;;5041849;28;20415;-87
2022/05/07 11:27:14;;;;;;;17.03;15.33;;;;;;;;;;5041907;28;20406;-87
2022/05/07 11:29:40;;;;;;;14.70;13.20;;;;;;;;;;5040536;28;20509;-87
2022/05/07 11:32:08;;;;;;;12.87;11.67;;;;;;;;;;5042906;28;20438;-87
2022/05/07 11:34:38;;;;;;;13.77;12.43;;;;;;;;;;5042280;28;20414;-86
2022/05/07 11:37:13;;;;;;;13.00;11.60;;;;;;;;;;5032156;28;20418;-86
2022/05/07 11:39:58;;;;;;;13.07;11.77;;;;;;;;;;5042401;28;20429;-88
2022/05/07 11:42:37;;;;;;;13.83;12.47;;;;;;;;;;5040633;28;20461;-86
2022/05/07 11:45:27;;;;;;;13.27;11.97;;;;;;;;;;5042460;28;20425;-87
2022/05/07 11:48:13;;;;;;;15.33;11.30;;;;;;;;;;5042612;28;20418;-87
2022/05/07 11:50:41;;;;;;;11.37;10.17;;;;;;;;;;5042234;28;20441;-86
2022/05/07 11:53:11;;;;;;;12.20;11.00;;;;;;;;;;5044123;28;20409;-85
2022/05/07 11:55:37;;;;;;;11.67;10.50;;;;;;;;;;5039519;28;20492;-84
2022/05/07 11:58:12;;;;;;;12.47;11.30;;;;;;;;;;5041837;28;20798;-86
2022/05/07 12:00:44;;;;;;;12.00;10.80;;;;;;;;;;5041946;28;20416;-86
2022/05/07 12:03:10;;;;;;;9.90;9.00;;;;;;;;;;5040148;28;20461;-86
2022/05/07 12:05:47;;;;;;;11.03;9.93;;;;;;;;;;5042593;28;20426;-86
2022/05/07 12:08:16;;;;;;;9.77;8.83;;;;;;;;;;5040927;28;20414;-86
2022/05/07 12:10:43;;;;;;;10.30;9.20;;;;;;;;;;5041776;28;20755;-85
2022/05/07 12:13:10;;;;;;;11.50;10.40;;;;;;;;;;5047039;28;20437;-85
2022/05/07 12:18:21;;;;;;;9.70;8.80;;;;;;;;;;5044485;28;20406;-86
2022/05/07 12:20:47;;;;;;;10.40;9.43;;;;;;;;;;5043228;28;20829;-87
2022/05/07 12:31:27;;;;;;;8.83;8.03;;;;;;;;;;5054635;28;20432;-86
2022/05/07 12:33:53;;;;;;;9.30;8.40;;;;;;;;;;5048002;28;20436;-84
2022/05/07 12:36:20;;;;;;;8.53;7.60;;;;;;;;;;5039812;28;20407;-85
2022/05/07 12:38:46;;;;;;;8.43;7.63;;;;;;;;;;5038298;28;20433;-85
2022/05/07 12:41:12;;;;;;;7.87;7.10;;;;;;;;;;5040019;28;20927;-86
2022/05/07 12:43:39;;;;;;;8.53;7.73;;;;;;;;;;5041292;28;20649;-86
2022/05/07 12:46:05;;;;;;;6.83;6.13;;;;;;;;;;5039683;28;20438;-85
2022/05/07 12:48:32;;;;;;;8.23;7.43;;;;;;;;;;5039994;28;20418;-85
2022/05/07 12:50:58;;;;;;;7.43;6.63;;;;;;;;;;5039398;28;20462;-85
2022/05/07 12:53:24;;;;;;;6.90;6.20;;;;;;;;;;5039858;28;20502;-84
2022/05/07 12:55:50;;;;;;;7.90;6.80;;;;;;;;;;5039534;28;20438;-85
2022/05/07 12:58:16;;;;;;;6.17;5.67;;;;;;;;;;5041079;28;20410;-84
2022/05/07 13:00:43;;;;;;;8.17;7.37;;;;;;;;;;5039617;28;20418;-84
2022/05/07 13:03:09;;;;;;;6.83;6.20;;;;;;;;;;5039206;28;20458;-85
2022/05/07 13:05:36;;;;;;;8.27;7.47;;;;;;;;;;5040211;28;20421;-85
2022/05/07 13:08:06;;;;;;;7.97;7.17;;;;;;;;;;5038542;28;20495;-86
2022/05/07 13:10:33;;;;;;;7.53;6.83;;;;;;;;;;5038822;28;20473;-85
2022/05/07 13:13:00;;;;;;;7.90;6.70;;;;;;;;;;5037543;28;20497;-85
2022/05/07 13:15:29;;;;;;;7.90;7.20;;;;;;;;;;5039850;28;20485;-86
2022/05/07 13:17:57;;;;;;;8.20;7.40;;;;;;;;;;5038551;28;20426;-85
2022/05/07 13:20:23;;;;;;;7.63;6.93;;;;;;;;;;5038833;28;20430;-85
2022/05/07 13:22:49;;;;;;;8.47;7.67;;;;;;;;;;5039340;28;20454;-85
2022/05/07 13:25:15;;;;;;;8.17;7.40;;;;;;;;;;5040201;28;20425;-86
2022/05/07 13:27:41;;;;;;;8.37;7.57;;;;;;;;;;5039502;28;20429;-86
2022/05/07 13:30:08;;;;;;;9.57;7.47;;;;;;;;;;5038118;28;20418;-86
2022/05/07 13:32:34;;;;;;;7.27;6.40;;;;;;;;;;5039475;28;20450;-85
2022/05/07 13:35:01;;;;;;;10.17;7.50;;;;;;;;;;5035961;28;20430;-85
2022/05/07 13:37:27;;;;;;;6.90;6.30;;;;;;;;;;5035721;28;20422;-86
2022/05/07 13:39:53;;;;;;;7.43;6.73;;;;;;;;;;5036218;28;20429;-85
2022/05/07 13:42:19;;;;;;;7.37;6.67;;;;;;;;;;5036120;28;20497;-86
2022/05/07 13:44:46;;;;;;;6.73;6.07;;;;;;;;;;5038662;28;20429;-86
2022/05/07 13:47:12;;;;;;;6.50;5.90;;;;;;;;;;5038078;28;20415;-85
2022/05/07 13:49:39;;;;;;;7.20;6.60;;;;;;;;;;5038877;28;20461;-85
2022/05/07 13:52:05;;;;;;;7.50;6.53;;;;;;;;;;5049040;28;20453;-86
2022/05/07 13:54:31;;;;;;;7.90;6.70;;;;;;;;;;5050835;28;20414;-86
2022/05/07 13:56:57;;;;;;;7.50;6.80;;;;;;;;;;5041292;28;20458;-86
2022/05/07 13:59:25;;;;;;;7.50;6.80;;;;;;;;;;5038539;28;20871;-85
2022/05/07 14:01:51;;;;;;;7.80;7.10;;;;;;;;;;5039033;28;20473;-86
2022/05/07 14:04:17;;;;;;;7.93;7.17;;;;;;;;;;5037915;28;20423;-86
2022/05/07 14:06:43;;;;;;;7.90;7.13;;;;;;;;;;5037552;28;20433;-86
2022/05/07 14:09:09;;;;;;;7.83;7.03;;;;;;;;;;5039111;28;20426;-86
2022/05/07 14:11:35;;;;;;;7.03;5.57;;;;;;;;;;5038236;28;20532;-85
2022/05/07 14:14:01;;;;;;;6.83;6.20;;;;;;;;;;5037614;28;20429;-86
2022/05/07 14:16:28;;;;;;;7.40;6.60;;;;;;;;;;5037537;28;20427;-86
2022/05/07 14:18:54;;;;;;;8.33;7.53;;;;;;;;;;5037801;28;20947;-86
2022/05/07 14:21:21;;;;;;;7.47;6.80;;;;;;;;;;5037714;28;20442;-86
2022/05/07 14:23:47;;;;;;;7.40;6.70;;;;;;;;;;5038454;28;20427;-86
2022/05/07 14:26:13;;;;;;;7.13;6.47;;;;;;;;;;5035347;28;20426;-85
2022/05/07 14:28:39;;;;;;;8.50;7.70;;;;;;;;;;5036395;28;20469;-85
2022/05/07 14:31:06;;;;;;;8.27;6.80;;;;;;;;;;5035593;28;20492;-84
2022/05/07 14:33:32;;;;;;;8.40;7.07;;;;;;;;;;5036959;28;20405;-84
2022/05/07 14:35:58;;;;;;;8.80;7.17;;;;;;;;;;5044325;28;20271;-85
2022/05/07 14:38:25;;;;;;;6.75;6.03;;;;;;;;;;5040499;28;20415;-85
2022/05/07 14:40:51;;;;;;;6.10;5.50;;;;;;;;;;5039242;28;20766;-86
2022/05/07 14:43:17;;;;;;;5.80;5.20;;;;;;;;;;5037930;28;20567;-85
2022/05/07 14:45:43;;;;;;;5.40;4.90;;;;;;;;;;5041601;28;20411;-85
2022/05/07 14:48:10;;;;;;;6.20;5.60;;;;;;;;;;5026893;28;20447;-86
2022/05/07 14:50:36;;;;;;;6.00;5.37;;;;;;;;;;5039979;28;20159;-84
2022/05/07 14:53:02;;;;;;;6.83;6.23;;;;;;;;;;5040148;28;20422;-85
2022/05/07 14:55:29;;;;;;;7.47;6.78;;;;;;;;;;5032686;28;20433;-86
2022/05/07 14:57:55;;;;;;;9.20;6.60;;;;;;;;;;5038443;28;20472;-84
2022/05/07 15:00:22;;;;;;;7.00;6.30;;;;;;;;;;5038582;28;20258;-85